Time,TemperatureF,DewpointF,PressureIn,WindDirection,WindDirectionDegrees,WindSpeedMPH,WindSpeedGustMPH,Humidity,HourlyPrecipIn,Conditions,Clouds,dailyrainin,SoftwareType,DateUTC
2013-05-23 00:01:00,68.1,67.2,29.80,SE,128,1.3,3.5,97,0.00,CLR,,0.00,WeatherDisplay:10.37,2013-05-23 04:01:00,
2013-05-23 00:02:00,67.9,67.0,29.80,SE,128,0.0,2.3,97,0.00,CLR,,0.00,WeatherDisplay:10.37,2013-05-23 04:02:00,
2013-05-23 00:03:00,67.9,67.0,29.80,SE,128,0.1,1.1,97,0.00,CLR,,0.00,WeatherDisplay:10.37,2013-05-23 04:03:00,
2013-05-23 00:09:00,67.8,67.2,29.80,SE,128,0.2,1.1,98,0.00,CLR,,0.00,WeatherDisplay:10.37,2013-05-23 04:09:00,
2013-05-23 00:14:00,67.8,67.2,29.80,WSW,246,0.1,2.0,98,0.00,CLR,,0.00,WeatherDisplay:10.37,2013-05-23 04:14:00,
2013-05-23 00:19:00,67.6,67.0,29.80,West,270,0.0,1.1,98,0.00,CLR,,0.00,WeatherDisplay:10.37,2013-05-23 04:19:00,
2013-05-23 00:24:00,67.6,67.0,29.81,South,189,1.0,3.5,98,0.00,CLR,,0.00,WeatherDisplay:10.37,2013-05-23 04:24:00,
2013-05-23 00:29:00,67.6,67.0,29.80,SW,227,0.2,1.0,98,0.00,CLR,,0.00,WeatherDisplay:10.37,2013-05-23 04:29:00,
2013-05-23 00:34:00,67.4,66.8,29.80,SW,221,0.0,0.0,98,0.00,CLR,,0.00,WeatherDisplay:10.37,2013-05-23 04:34:00,
2013-05-23 00:39:00,67.4,66.8,29.80,SW,229,0.0,2.0,98,0.00,CLR,,0.00,WeatherDisplay:10.37,2013-05-23 04:39:00,
2013-05-23 00:44:00,67.4,66.8,29.80,SW,236,0.0,0.0,98,0.00,CLR,,0.00,WeatherDisplay:10.37,2013-05-23 04:44:00,
2013-05-23 00:49:00,67.3,66.4,29.80,SW,236,0.2,3.5,97,0.00,CLR,,0.00,WeatherDisplay:10.37,2013-05-23 04:49:00,
2013-05-23 00:54:00,67.3,66.4,29.80,WSW,237,0.0,0.0,97,0.00,CLR,,0.00,WeatherDisplay:10.37,2013-05-23 04:54:00,
2013-05-23 01:00:00,67.3,66.4,29.80,South,183,0.9,3.5,97,0.00,CLR,,0.00,WeatherDisplay:10.37,2013-05-23 05:00:00,
2013-05-23 01:05:00,67.1,66.5,29.80,SSW,202,0.4,3.0,98,0.00,CLR,,0.00,WeatherDisplay:10.37,2013-05-23 05:05:00,
2013-05-23 01:10:00,67.1,66.5,29.80,SSW,202,0.0,0.0,98,0.00,CLR,,0.00,WeatherDisplay:10.37,2013-05-23 05:10:00,
2013-05-23 01:15:00,66.9,66.3,29.79,SSW,202,0.0,0.0,98,0.00,CLR,,0.00,WeatherDisplay:10.37,2013-05-23 05:15:00,
2013-05-23 01:20:00,66.8,65.9,29.79,SSW,202,0.0,0.0,97,0.00,CLR,,0.00,WeatherDisplay:10.37,2013-05-23 05:20:00,
2013-05-23 01:25:00,66.4,65.5,29.79,SSW,202,0.0,0.0,97,0.00,CLR,,0.00,WeatherDisplay:10.37,2013-05-23 05:25:00,
2013-05-23 01:30:00,66.3,65.7,29.79,SSW,202,0.0,0.0,98,0.00,CLR,,0.00,WeatherDisplay:10.37,2013-05-23 05:30:00,
2013-05-23 01:35:00,66.1,65.5,29.79,SSW,202,0.0,0.0,98,0.00,CLR,,0.00,WeatherDisplay:10.37,2013-05-23 05:35:00,
2013-05-23 01:41:00,66.0,65.4,29.79,SSW,202,0.0,0.0,98,0.00,CLR,,0.00,WeatherDisplay:10.37,2013-05-23 05:41:00,
2013-05-23 01:46:00,65.8,65.2,29.78,SSW,202,0.0,0.0,98,0.00,CLR,,0.00,WeatherDisplay:10.37,2013-05-23 05:46:00,
2013-05-23 01:51:00,65.6,65.3,29.78,SSW,202,0.0,0.0,99,0.00,CLR,,0.00,WeatherDisplay:10.37,2013-05-23 05:51:00,
2013-05-23 01:56:00,65.5,65.2,29.78,SSW,202,0.0,0.0,99,0.00,CLR,,0.00,WeatherDisplay:10.37,2013-05-23 05:56:00,
2013-05-23 02:01:00,65.3,65.0,29.77,SSW,202,0.0,0.0,99,0.00,CLR,,0.00,WeatherDisplay:10.37,2013-05-23 06:01:00,
2013-05-23 02:06:00,65.3,65.0,29.77,SSW,202,0.0,0.0,99,0.00,CLR,,0.00,WeatherDisplay:10.37,2013-05-23 06:06:00,
2013-05-23 02:11:00,65.2,64.9,29.77,SSW,202,0.0,0.0,99,0.00,CLR,,0.00,WeatherDisplay:10.37,2013-05-23 06:11:00,
2013-05-23 02:17:00,65.2,64.9,29.78,SSW,202,0.0,0.0,99,0.00,CLR,,0.00,WeatherDisplay:10.37,2013-05-23 06:17:00,
2013-05-23 02:22:00,64.8,64.5,29.77,SSW,202,0.0,0.0,99,0.00,CLR,,0.00,WeatherDisplay:10.37,2013-05-23 06:22:00,
2013-05-23 02:27:00,64.8,64.5,29.77,SSW,202,0.0,0.0,99,0.00,CLR,,0.00,WeatherDisplay:10.37,2013-05-23 06:27:00,
2013-05-23 02:32:00,64.8,64.8,29.77,SSW,202,0.0,0.0,100,0.00,CLR,,0.00,WeatherDisplay:10.37,2013-05-23 06:32:00,
2013-05-23 02:37:00,64.8,64.8,29.77,SSW,202,0.0,1.1,100,0.00,CLR,,0.00,WeatherDisplay:10.37,2013-05-23 06:37:00,
2013-05-23 02:42:00,64.8,64.8,29.77,SSW,202,0.0,0.0,100,0.00,CLR,,0.00,WeatherDisplay:10.37,2013-05-23 06:42:00,
2013-05-23 02:48:00,64.5,64.5,29.77,SSW,202,0.0,0.0,100,0.00,CLR,,0.00,WeatherDisplay:10.37,2013-05-23 06:48:00,
2013-05-23 02:53:00,64.3,64.3,29.77,South,188,0.1,1.1,100,0.00,CLR,,0.00,WeatherDisplay:10.37,2013-05-23 06:53:00,
2013-05-23 02:58:00,64.5,64.5,29.77,WSW,244,0.1,1.1,100,0.00,CLR,,0.00,WeatherDisplay:10.37,2013-05-23 06:58:00,
2013-05-23 03:03:00,64.5,64.5,29.77,ESE,107,0.4,2.3,100,0.00,CLR,,0.00,WeatherDisplay:10.37,2013-05-23 07:03:00,
2013-05-23 03:08:00,64.7,64.7,29.77,ESE,107,0.0,0.0,100,0.00,CLR,,0.00,WeatherDisplay:10.37,2013-05-23 07:08:00,
2013-05-23 03:14:00,64.5,64.5,29.77,ESE,107,0.0,0.0,100,0.00,CLR,,0.00,WeatherDisplay:10.37,2013-05-23 07:14:00,
2013-05-23 03:19:00,64.5,64.5,29.77,ESE,107,0.0,0.0,100,0.00,CLR,,0.00,WeatherDisplay:10.37,2013-05-23 07:19:00,
2013-05-23 03:24:00,64.5,64.5,29.77,ESE,107,0.0,0.0,100,0.00,CLR,,0.00,WeatherDisplay:10.37,2013-05-23 07:24:00,
2013-05-23 03:29:00,64.7,64.7,29.77,ESE,107,0.0,0.0,100,0.00,CLR,,0.00,WeatherDisplay:10.37,2013-05-23 07:29:00,
2013-05-23 03:35:00,64.8,64.8,29.77,ESE,107,0.0,0.0,100,0.00,CLR,,0.00,WeatherDisplay:10.37,2013-05-23 07:35:00,
2013-05-23 03:40:00,65.0,65.0,29.77,ESE,107,0.0,0.0,100,0.00,CLR,,0.00,WeatherDisplay:10.37,2013-05-23 07:40:00,
2013-05-23 03:45:00,65.2,65.2,29.77,ESE,107,0.0,0.0,100,0.00,CLR,,0.00,WeatherDisplay:10.37,2013-05-23 07:45:00,
2013-05-23 03:50:00,65.3,65.3,29.77,SW,217,0.0,0.0,100,0.00,CLR,,0.00,WeatherDisplay:10.37,2013-05-23 07:50:00,
2013-05-23 03:55:00,65.3,65.3,29.78,SW,219,0.9,0.0,100,0.00,CLR,,0.00,WeatherDisplay:10.37,2013-05-23 07:55:00,
2013-05-23 04:00:00,65.5,65.5,29.77,WSW,237,0.6,3.5,100,0.00,CLR,,0.00,WeatherDisplay:10.37,2013-05-23 08:00:00,
2013-05-23 04:05:00,65.6,65.6,29.77,WSW,237,0.2,1.1,100,0.00,CLR,,0.00,WeatherDisplay:10.37,2013-05-23 08:05:00,
2013-05-23 04:11:00,65.5,65.5,29.77,WSW,237,0.1,1.1,100,0.00,CLR,,0.00,WeatherDisplay:10.37,2013-05-23 08:11:00,
2013-05-23 04:16:00,65.5,65.5,29.78,WSW,237,0.0,0.0,100,0.00,CLR,,0.00,WeatherDisplay:10.37,2013-05-23 08:16:00,
2013-05-23 04:21:00,65.5,65.5,29.78,WSW,237,0.2,1.1,100,0.00,CLR,,0.00,WeatherDisplay:10.37,2013-05-23 08:21:00,
2013-05-23 04:26:00,65.8,65.8,29.78,SW,220,0.0,0.0,100,0.00,CLR,,0.00,WeatherDisplay:10.37,2013-05-23 08:26:00,
2013-05-23 04:31:00,66.1,66.1,29.77,SW,220,0.0,0.0,100,0.00,CLR,,0.00,WeatherDisplay:10.37,2013-05-23 08:31:00,
2013-05-23 04:36:00,66.3,66.3,29.78,SW,220,0.0,0.0,100,0.00,CLR,,0.00,WeatherDisplay:10.37,2013-05-23 08:36:00,
2013-05-23 04:42:00,66.4,66.4,29.77,SSW,210,0.0,0.0,100,0.00,CLR,,0.00,WeatherDisplay:10.37,2013-05-23 08:42:00,
2013-05-23 04:46:00,66.6,66.6,29.77,West,265,0.0,1.1,100,0.00,CLR,,0.00,WeatherDisplay:10.37,2013-05-23 08:46:00,
2013-05-23 04:52:00,66.8,66.8,29.77,SSW,208,0.1,1.1,100,0.00,CLR,,0.00,WeatherDisplay:10.37,2013-05-23 08:52:00,
2013-05-23 04:57:00,66.8,66.8,29.77,SSW,199,0.0,0.0,100,0.00,CLR,,0.00,WeatherDisplay:10.37,2013-05-23 08:57:00,
2013-05-23 05:02:00,66.9,66.9,29.77,SSW,192,0.0,1.1,100,0.00,,,0.00,WeatherDisplay:10.37,2013-05-23 09:02:00,
2013-05-23 05:07:00,67.1,67.1,29.77,SSW,196,0.0,1.1,100,0.00,,,0.00,WeatherDisplay:10.37,2013-05-23 09:07:00,
2013-05-23 05:12:00,67.1,67.1,29.77,West,259,0.0,0.0,100,0.00,,,0.00,WeatherDisplay:10.37,2013-05-23 09:12:00,
2013-05-23 05:17:00,67.1,67.1,29.77,SSW,201,0.0,0.0,100,0.00,,,0.00,WeatherDisplay:10.37,2013-05-23 09:17:00,
2013-05-23 05:22:00,67.3,67.3,29.77,West,278,1.0,3.5,100,0.00,,,0.00,WeatherDisplay:10.37,2013-05-23 09:22:00,
2013-05-23 05:27:00,67.3,67.3,29.77,South,186,0.1,0.0,100,0.00,,,0.00,WeatherDisplay:10.37,2013-05-23 09:27:00,
2013-05-23 05:33:00,67.3,67.3,29.78,South,188,0.0,0.0,100,0.00,,,0.00,WeatherDisplay:10.37,2013-05-23 09:33:00,
2013-05-23 05:38:00,67.3,67.3,29.77,South,188,0.0,0.0,100,0.00,,,0.00,WeatherDisplay:10.37,2013-05-23 09:38:00,
2013-05-23 05:43:00,67.3,67.3,29.78,South,188,0.0,0.0,100,0.00,,,0.00,WeatherDisplay:10.37,2013-05-23 09:43:00,
2013-05-23 05:48:00,67.3,67.3,29.77,South,188,0.0,0.0,100,0.00,,,0.00,WeatherDisplay:10.37,2013-05-23 09:48:00,
2013-05-23 05:53:00,67.3,67.3,29.77,South,188,0.0,0.0,100,0.00,,,0.00,WeatherDisplay:10.37,2013-05-23 09:53:00,
2013-05-23 05:58:00,67.4,67.4,29.77,South,188,0.0,0.0,100,0.00,,,0.00,WeatherDisplay:10.37,2013-05-23 09:58:00,
2013-05-23 06:04:00,67.4,67.4,29.78,South,188,0.0,0.0,100,0.00,,,0.00,WeatherDisplay:10.37,2013-05-23 10:04:00,
2013-05-23 06:09:00,67.4,67.4,29.78,WSW,242,0.2,1.1,100,0.00,,,0.00,WeatherDisplay:10.37,2013-05-23 10:09:00,
2013-05-23 06:14:00,67.6,67.6,29.79,SSW,198,0.1,1.1,100,0.00,,,0.00,WeatherDisplay:10.37,2013-05-23 10:14:00,
2013-05-23 06:19:00,67.6,67.3,29.80,SW,222,0.4,1.1,99,0.00,,,0.00,WeatherDisplay:10.37,2013-05-23 10:19:00,
2013-05-23 06:24:00,67.6,67.3,29.80,WNW,300,0.0,1.1,99,0.00,,,0.00,WeatherDisplay:10.37,2013-05-23 10:24:00,
2013-05-23 06:29:00,67.6,67.3,29.80,WSW,252,0.2,3.5,99,0.00,,,0.00,WeatherDisplay:10.37,2013-05-23 10:29:00,
2013-05-23 06:35:00,67.4,67.1,29.80,ESE,115,0.6,3.5,99,0.00,,,0.00,WeatherDisplay:10.37,2013-05-23 10:35:00,
2013-05-23 06:40:00,67.4,67.1,29.80,South,176,0.7,2.3,99,0.00,,,0.00,WeatherDisplay:10.37,2013-05-23 10:40:00,
2013-05-23 06:45:00,67.4,67.1,29.80,SW,225,1.2,3.5,99,0.00,CLR,,0.00,WeatherDisplay:10.37,2013-05-23 10:45:00,
2013-05-23 06:50:00,67.4,66.8,29.81,West,264,0.0,1.1,98,0.00,CLR,,0.00,WeatherDisplay:10.37,2013-05-23 10:50:00,
2013-05-23 06:55:00,67.4,66.8,29.81,WSW,251,0.4,1.1,98,0.00,CLR,,0.00,WeatherDisplay:10.37,2013-05-23 10:55:00,
2013-05-23 07:00:00,67.4,66.8,29.81,WSW,250,0.0,1.1,98,0.00,CLR,,0.00,WeatherDisplay:10.37,2013-05-23 11:00:00,
2013-05-23 07:05:00,67.4,66.8,29.82,SW,219,0.6,2.3,98,0.00,CLR,,0.00,WeatherDisplay:10.37,2013-05-23 11:05:00,
2013-05-23 07:11:00,67.4,66.8,29.82,ESE,113,0.2,3.5,98,0.00,CLR,,0.00,WeatherDisplay:10.37,2013-05-23 11:11:00,
2013-05-23 07:16:00,67.4,66.8,29.82,SW,232,0.0,1.1,98,0.00,CLR,,0.00,WeatherDisplay:10.37,2013-05-23 11:16:00,
2013-05-23 07:21:00,67.4,66.8,29.82,SW,232,0.0,0.0,98,0.00,CLR,,0.00,WeatherDisplay:10.37,2013-05-23 11:21:00,
2013-05-23 07:27:00,67.4,66.8,29.82,SSW,209,1.1,3.5,98,0.00,CLR,,0.00,WeatherDisplay:10.37,2013-05-23 11:27:00,
2013-05-23 07:32:00,67.4,66.8,29.82,SW,220,0.1,1.1,98,0.00,CLR,,0.00,WeatherDisplay:10.37,2013-05-23 11:32:00,
2013-05-23 07:37:00,67.4,66.8,29.82,SW,234,0.3,1.1,98,0.00,CLR,,0.00,WeatherDisplay:10.37,2013-05-23 11:37:00,
2013-05-23 07:42:00,67.4,66.8,29.82,SW,234,0.0,0.0,98,0.00,CLR,,0.00,WeatherDisplay:10.37,2013-05-23 11:42:00,
2013-05-23 07:47:00,67.4,66.8,29.81,ESE,112,0.0,0.0,98,0.00,CLR,,0.00,WeatherDisplay:10.37,2013-05-23 11:47:00,
2013-05-23 07:53:00,67.4,66.8,29.82,West,259,0.0,0.0,98,0.00,CLR,,0.00,WeatherDisplay:10.37,2013-05-23 11:53:00,
2013-05-23 07:58:00,67.6,67.0,29.81,South,189,0.0,1.1,98,0.00,CLR,,0.00,WeatherDisplay:10.37,2013-05-23 11:58:00,
2013-05-23 08:03:00,67.6,67.0,29.81,South,184,0.4,3.5,98,0.00,CLR,,0.00,WeatherDisplay:10.37,2013-05-23 12:03:00,
2013-05-23 08:08:00,67.6,67.0,29.81,SW,217,0.0,0.0,98,0.00,CLR,,0.00,WeatherDisplay:10.37,2013-05-23 12:08:00,
2013-05-23 08:13:00,67.8,67.2,29.81,SW,217,0.0,1.1,98,0.00,CLR,,0.00,WeatherDisplay:10.37,2013-05-23 12:13:00,
2013-05-23 08:18:00,67.8,67.2,29.81,SW,234,0.0,1.1,98,0.00,CLR,,0.00,WeatherDisplay:10.37,2013-05-23 12:18:00,
2013-05-23 08:23:00,67.9,67.3,29.82,SW,223,0.5,2.0,98,0.00,CLR,,0.00,WeatherDisplay:10.37,2013-05-23 12:23:00,
2013-05-23 08:29:00,67.9,67.3,29.81,South,174,0.4,2.3,98,0.00,CLR,,0.00,WeatherDisplay:10.37,2013-05-23 12:29:00,
2013-05-23 08:34:00,67.9,67.3,29.81,WSW,238,0.8,2.3,98,0.00,CLR,,0.00,WeatherDisplay:10.37,2013-05-23 12:34:00,
2013-05-23 08:39:00,68.1,67.5,29.81,SW,233,0.0,0.0,98,0.00,CLR,,0.00,WeatherDisplay:10.37,2013-05-23 12:39:00,
2013-05-23 08:44:00,68.3,67.7,29.81,SW,233,0.0,1.1,98,0.00,CLR,,0.00,WeatherDisplay:10.37,2013-05-23 12:44:00,
2013-05-23 08:49:00,68.4,67.8,29.80,SW,233,0.1,1.1,98,0.00,CLR,,0.00,WeatherDisplay:10.37,2013-05-23 12:49:00,
2013-05-23 08:54:00,68.8,67.9,29.81,SW,234,0.2,1.1,97,0.00,CLR,,0.00,WeatherDisplay:10.37,2013-05-23 12:54:00,
2013-05-23 08:59:00,68.9,67.7,29.81,West,275,0.5,3.5,96,0.00,CLR,,0.00,WeatherDisplay:10.37,2013-05-23 12:59:00,
2013-05-23 09:04:00,69.1,67.9,29.81,West,274,0.3,5.8,96,0.00,CLR,,0.00,WeatherDisplay:10.37,2013-05-23 13:04:00,
2013-05-23 09:09:00,69.3,67.8,29.82,SW,221,1.1,2.0,95,0.00,CLR,,0.00,WeatherDisplay:10.37,2013-05-23 13:09:00,
2013-05-23 09:15:00,69.3,67.8,29.82,SW,235,0.1,1.1,95,0.00,CLR,,0.00,WeatherDisplay:10.37,2013-05-23 13:15:00,
2013-05-23 09:20:00,69.4,67.9,29.82,WSW,239,0.3,2.3,95,0.00,CLR,,0.00,WeatherDisplay:10.37,2013-05-23 13:20:00,
2013-05-23 09:25:00,69.6,68.1,29.82,SW,229,0.0,0.0,95,0.00,CLR,,0.00,WeatherDisplay:10.37,2013-05-23 13:25:00,
2013-05-23 09:30:00,69.6,67.8,29.82,SE,136,1.7,4.6,94,0.00,CLR,,0.00,WeatherDisplay:10.37,2013-05-23 13:30:00,
2013-05-23 09:36:00,69.6,67.8,29.81,SE,136,0.0,0.0,94,0.00,CLR,,0.00,WeatherDisplay:10.37,2013-05-23 13:36:00,
2013-05-23 09:41:00,69.9,68.1,29.81,SW,214,1.0,2.3,94,0.00,CLR,,0.00,WeatherDisplay:10.37,2013-05-23 13:41:00,
2013-05-23 09:46:00,70.3,68.5,29.81,West,273,0.9,3.5,94,0.00,CLR,,0.00,WeatherDisplay:10.37,2013-05-23 13:46:00,
2013-05-23 09:51:00,70.4,68.0,29.81,WSW,245,0.2,1.1,92,0.00,CLR,,0.00,WeatherDisplay:10.37,2013-05-23 13:51:00,
2013-05-23 09:56:00,70.4,68.0,29.81,SSW,203,1.0,2.3,92,0.00,CLR,,0.00,WeatherDisplay:10.37,2013-05-23 13:56:00,
2013-05-23 10:01:00,70.6,68.5,29.80,SSW,195,0.4,3.5,93,0.00,CLR,,0.00,WeatherDisplay:10.37,2013-05-23 14:01:00,
2013-05-23 10:06:00,70.4,68.6,29.80,West,265,0.3,1.1,94,0.01,RA,,0.01,WeatherDisplay:10.37,2013-05-23 14:06:00,
2013-05-23 10:11:00,70.4,68.9,29.80,West,262,0.0,1.1,95,0.01,RA,,0.01,WeatherDisplay:10.37,2013-05-23 14:11:00,
2013-05-23 10:17:00,70.6,69.4,29.81,SW,225,0.9,4.6,96,0.01,CLR,,0.01,WeatherDisplay:10.37,2013-05-23 14:17:00,
2013-05-23 10:22:00,70.4,69.2,29.81,WSW,241,0.1,1.1,96,0.01,,,0.02,WeatherDisplay:10.37,2013-05-23 14:22:00,
2013-05-23 10:27:00,70.4,69.5,29.81,SW,221,0.0,1.1,97,0.02,RA,,0.02,WeatherDisplay:10.37,2013-05-23 14:27:00,
2013-05-23 10:33:00,70.4,69.5,29.80,SW,221,0.2,1.1,97,0.02,,,0.02,WeatherDisplay:10.37,2013-05-23 14:33:00,
2013-05-23 10:38:00,70.4,69.5,29.80,SW,221,0.0,0.0,97,0.03,RA,,0.03,WeatherDisplay:10.37,2013-05-23 14:38:00,
2013-05-23 10:43:00,70.4,69.5,29.80,SW,221,0.0,0.0,97,0.03,RA,,0.03,WeatherDisplay:10.37,2013-05-23 14:43:00,
2013-05-23 10:48:00,70.8,69.9,29.80,SW,221,0.0,0.0,97,0.03,,,0.03,WeatherDisplay:10.37,2013-05-23 14:48:00,
2013-05-23 10:53:00,70.8,69.9,29.80,SW,221,0.2,0.0,97,0.03,,,0.03,WeatherDisplay:10.37,2013-05-23 14:53:00,
2013-05-23 10:58:00,71.1,70.2,29.80,SW,221,0.0,0.0,97,0.03,,,0.03,WeatherDisplay:10.37,2013-05-23 14:58:00,
2013-05-23 11:03:00,71.5,70.6,29.80,SW,221,1.3,2.3,97,0.02,,,0.03,WeatherDisplay:10.37,2013-05-23 15:03:00,
2013-05-23 11:09:00,71.6,70.7,29.80,SW,221,0.1,1.1,97,0.02,,,0.03,WeatherDisplay:10.37,2013-05-23 15:09:00,
2013-05-23 11:14:00,71.6,70.7,29.80,SSW,203,3.3,6.9,97,0.02,,,0.03,WeatherDisplay:10.37,2013-05-23 15:14:00,
2013-05-23 11:19:00,71.6,70.4,29.80,SW,219,0.2,1.1,96,0.02,,,0.03,WeatherDisplay:10.37,2013-05-23 15:19:00,
2013-05-23 11:24:00,72.0,70.8,29.81,SSW,197,0.8,3.5,96,0.01,,,0.03,WeatherDisplay:10.37,2013-05-23 15:24:00,
2013-05-23 11:29:00,71.8,70.3,29.80,West,275,0.2,2.3,95,0.01,,,0.03,WeatherDisplay:10.37,2013-05-23 15:29:00,
2013-05-23 11:34:00,72.0,70.5,29.80,WSW,242,0.7,3.5,95,0.01,,,0.03,WeatherDisplay:10.37,2013-05-23 15:34:00,
2013-05-23 11:39:00,72.1,70.6,29.80,West,273,0.0,1.1,95,0.00,CLR,,0.03,WeatherDisplay:10.37,2013-05-23 15:39:00,
2013-05-23 11:45:00,72.3,70.8,29.80,West,271,0.0,1.1,95,0.00,CLR,,0.03,WeatherDisplay:10.37,2013-05-23 15:45:00,
2013-05-23 11:50:00,72.1,70.3,29.80,SSE,158,0.4,1.1,94,0.00,CLR,,0.03,WeatherDisplay:10.37,2013-05-23 15:50:00,
2013-05-23 11:55:00,72.1,70.6,29.80,West,266,0.1,2.3,95,0.00,CLR,,0.03,WeatherDisplay:10.37,2013-05-23 15:55:00,
2013-05-23 12:00:00,72.1,70.6,29.80,SSE,150,0.1,0.0,95,0.00,CLR,,0.03,WeatherDisplay:10.37,2013-05-23 16:00:00,
2013-05-23 12:05:00,72.3,70.8,29.80,SW,215,0.6,3.5,95,0.00,CLR,,0.03,WeatherDisplay:10.37,2013-05-23 16:05:00,
2013-05-23 12:11:00,72.1,70.3,29.80,SW,227,0.0,1.1,94,0.00,CLR,,0.03,WeatherDisplay:10.37,2013-05-23 16:11:00,
2013-05-23 12:16:00,72.0,70.2,29.79,SW,227,0.0,1.1,94,0.00,CLR,,0.03,WeatherDisplay:10.37,2013-05-23 16:16:00,
2013-05-23 12:21:00,72.1,70.6,29.79,SW,227,0.0,1.1,95,0.01,RA,,0.04,WeatherDisplay:10.37,2013-05-23 16:21:00,
2013-05-23 12:26:00,72.0,70.5,29.78,NNW,342,0.2,2.3,95,0.02,RA,,0.05,WeatherDisplay:10.37,2013-05-23 16:26:00,
2013-05-23 12:31:00,72.1,70.6,29.78,NNW,342,0.0,0.0,95,0.02,RA,,0.05,WeatherDisplay:10.37,2013-05-23 16:31:00,
2013-05-23 12:37:00,72.5,71.3,29.78,South,172,0.0,0.0,96,0.02,CLR,,0.05,WeatherDisplay:10.37,2013-05-23 16:37:00,
2013-05-23 12:42:00,72.7,71.5,29.78,South,172,0.0,1.1,96,0.02,,,0.05,WeatherDisplay:10.37,2013-05-23 16:42:00,
2013-05-23 12:47:00,72.7,71.2,29.79,WSW,237,0.0,1.1,95,0.02,,,0.05,WeatherDisplay:10.37,2013-05-23 16:47:00,
2013-05-23 12:52:00,72.7,71.2,29.79,SW,229,0.9,2.3,95,0.02,,,0.05,WeatherDisplay:10.37,2013-05-23 16:52:00,
2013-05-23 12:57:00,72.5,70.7,29.78,SW,229,0.0,0.0,94,0.02,,,0.05,WeatherDisplay:10.37,2013-05-23 16:57:00,
2013-05-23 13:02:00,72.5,70.7,29.78,SW,229,0.3,0.0,94,0.02,,,0.05,WeatherDisplay:10.37,2013-05-23 17:02:00,
2013-05-23 13:07:00,72.3,70.5,29.78,SW,229,0.0,0.0,94,0.02,,,0.05,WeatherDisplay:10.37,2013-05-23 17:07:00,
2013-05-23 13:13:00,72.1,70.3,29.78,SW,232,0.0,0.0,94,0.02,,,0.05,WeatherDisplay:10.37,2013-05-23 17:13:00,
2013-05-23 13:18:00,72.1,70.6,29.79,SW,232,0.0,0.0,95,0.02,,,0.05,WeatherDisplay:10.37,2013-05-23 17:18:00,
2013-05-23 13:23:00,72.0,70.5,29.79,SW,232,0.0,0.0,95,0.01,RA,,0.06,WeatherDisplay:10.37,2013-05-23 17:23:00,
2013-05-23 13:28:00,72.0,70.5,29.79,SW,232,0.0,0.0,95,0.02,RA,,0.07,WeatherDisplay:10.37,2013-05-23 17:28:00,
2013-05-23 13:33:00,71.8,70.6,29.79,SW,232,0.0,0.0,96,0.03,RA,,0.08,WeatherDisplay:10.37,2013-05-23 17:33:00,
2013-05-23 13:39:00,71.8,70.9,29.79,SW,229,0.7,1.1,97,0.07,RA,,0.12,WeatherDisplay:10.37,2013-05-23 17:39:00,
2013-05-23 13:44:00,71.1,70.2,29.80,SSE,164,1.4,2.3,97,0.11,RA,,0.17,WeatherDisplay:10.37,2013-05-23 17:44:00,
2013-05-23 13:49:00,70.4,69.5,29.80,SSW,212,1.8,9.2,97,0.13,RA,,0.18,WeatherDisplay:10.37,2013-05-23 17:49:00,
2013-05-23 13:54:00,69.6,68.7,29.80,SSE,161,3.7,5.8,97,0.14,RA,,0.19,WeatherDisplay:10.37,2013-05-23 17:54:00,
2013-05-23 13:59:00,69.1,68.5,29.79,South,171,0.1,1.1,98,0.17,RA,,0.22,WeatherDisplay:10.37,2013-05-23 17:59:00,
2013-05-23 14:04:00,68.9,68.6,29.79,SSW,204,2.3,5.8,99,0.20,RA,,0.25,WeatherDisplay:10.37,2013-05-23 18:04:00,
2013-05-23 14:09:00,68.8,68.5,29.79,SSE,149,0.1,2.3,99,0.20,RA,,0.25,WeatherDisplay:10.37,2013-05-23 18:09:00,
2013-05-23 14:14:00,68.6,68.3,29.79,WNW,288,0.7,0.0,99,0.20,,,0.25,WeatherDisplay:10.37,2013-05-23 18:14:00,
2013-05-23 14:20:00,68.4,68.4,29.79,SW,229,0.0,3.5,100,0.20,RA,,0.26,WeatherDisplay:10.37,2013-05-23 18:20:00,
2013-05-23 14:25:00,68.3,68.3,29.79,WSW,248,2.6,4.6,100,0.21,RA,,0.28,WeatherDisplay:10.37,2013-05-23 18:25:00,
2013-05-23 14:30:00,68.1,68.1,29.79,WSW,245,2.6,5.8,100,0.23,RA,,0.30,WeatherDisplay:10.37,2013-05-23 18:30:00,
2013-05-23 14:35:00,67.9,67.9,29.79,WSW,246,0.0,0.0,100,0.22,RA,,0.31,WeatherDisplay:10.37,2013-05-23 18:35:00,
2013-05-23 14:40:00,67.9,67.9,29.79,WSW,257,0.2,1.1,100,0.17,RA,,0.32,WeatherDisplay:10.37,2013-05-23 18:40:00,
2013-05-23 14:45:00,67.9,67.9,29.79,SW,215,2.4,3.5,100,0.16,RA,,0.33,WeatherDisplay:10.37,2013-05-23 18:45:00,
2013-05-23 14:50:00,67.8,67.8,29.79,SW,215,0.0,0.0,100,0.16,RA,,0.35,WeatherDisplay:10.37,2013-05-23 18:50:00,
2013-05-23 14:56:00,67.8,67.8,29.79,SW,215,0.0,1.1,100,0.17,RA,,0.37,WeatherDisplay:10.37,2013-05-23 18:56:00,
2013-05-23 15:01:00,67.6,67.6,29.78,SW,215,0.0,0.0,100,0.16,RA,,0.39,WeatherDisplay:10.37,2013-05-23 19:01:00,
2013-05-23 15:06:00,67.6,67.6,29.78,SW,215,0.0,0.0,100,0.14,RA,,0.39,WeatherDisplay:10.37,2013-05-23 19:06:00,
2013-05-23 15:12:00,67.4,67.4,29.77,SW,215,0.0,0.0,100,0.15,RA,,0.40,WeatherDisplay:10.37,2013-05-23 19:12:00,
2013-05-23 15:17:00,67.4,67.4,29.77,SW,215,0.0,0.0,100,0.17,RA,,0.42,WeatherDisplay:10.37,2013-05-23 19:17:00,
2013-05-23 15:22:00,67.4,67.4,29.76,SW,215,0.0,0.0,100,0.16,RA,,0.43,WeatherDisplay:10.37,2013-05-23 19:22:00,
2013-05-23 15:27:00,67.3,67.3,29.76,SW,215,0.2,1.1,100,0.15,RA,,0.45,WeatherDisplay:10.37,2013-05-23 19:27:00,
2013-05-23 15:33:00,67.3,67.3,29.76,SSE,157,0.1,1.1,100,0.15,RA,,0.46,WeatherDisplay:10.37,2013-05-23 19:33:00,
2013-05-23 15:38:00,67.1,67.1,29.76,ESE,104,0.0,0.0,100,0.16,RA,,0.47,WeatherDisplay:10.37,2013-05-23 19:38:00,
2013-05-23 15:43:00,67.4,67.4,29.76,ESE,104,0.0,0.0,100,0.15,RA,,0.47,WeatherDisplay:10.37,2013-05-23 19:43:00,
2013-05-23 15:48:00,67.8,67.8,29.76,ESE,104,0.0,0.0,100,0.13,,,0.47,WeatherDisplay:10.37,2013-05-23 19:48:00,
2013-05-23 15:53:00,67.9,67.9,29.75,ESE,104,0.0,0.0,100,0.11,,,0.47,WeatherDisplay:10.37,2013-05-23 19:53:00,
2013-05-23 15:58:00,68.1,68.1,29.75,ESE,104,0.0,0.0,100,0.09,,,0.47,WeatherDisplay:10.37,2013-05-23 19:58:00,
2013-05-23 16:04:00,68.3,68.3,29.75,ESE,122,0.1,1.1,100,0.08,,,0.47,WeatherDisplay:10.37,2013-05-23 20:04:00,
2013-05-23 16:09:00,68.1,68.1,29.75,SSE,163,0.1,1.1,100,0.07,,,0.47,WeatherDisplay:10.37,2013-05-23 20:09:00,
2013-05-23 16:14:00,68.4,68.4,29.74,SSW,208,0.1,1.1,100,0.06,,,0.47,WeatherDisplay:10.37,2013-05-23 20:14:00,
2013-05-23 16:19:00,68.3,68.3,29.75,West,271,0.2,1.1,100,0.05,,,0.47,WeatherDisplay:10.37,2013-05-23 20:19:00,
2013-05-23 16:24:00,68.3,68.3,29.76,West,263,1.7,3.5,100,0.03,,,0.47,WeatherDisplay:10.37,2013-05-23 20:24:00,
2013-05-23 16:30:00,68.1,68.1,29.76,ESE,116,0.0,0.0,100,0.02,,,0.47,WeatherDisplay:10.37,2013-05-23 20:30:00,
2013-05-23 16:35:00,67.9,67.9,29.75,SSE,164,2.0,2.3,100,0.01,,,0.47,WeatherDisplay:10.37,2013-05-23 20:35:00,
2013-05-23 16:40:00,67.8,67.8,29.75,SSE,164,0.2,1.1,100,0.00,,,0.47,WeatherDisplay:10.37,2013-05-23 20:40:00,
2013-05-23 16:45:00,67.8,67.8,29.75,SSE,165,0.0,0.0,100,0.00,,,0.47,WeatherDisplay:10.37,2013-05-23 20:45:00,
2013-05-23 16:50:00,67.8,67.8,29.75,SW,223,0.1,1.1,100,0.01,RA,,0.48,WeatherDisplay:10.37,2013-05-23 20:50:00,
2013-05-23 16:55:00,67.6,67.6,29.76,South,180,0.8,3.5,100,0.03,RA,,0.51,WeatherDisplay:10.37,2013-05-23 20:55:00,
2013-05-23 17:00:00,67.4,67.4,29.75,SSE,149,0.9,3.5,100,0.06,RA,,0.53,WeatherDisplay:10.37,2013-05-23 21:00:00,
2013-05-23 17:06:00,67.3,67.3,29.75,SSE,153,0.3,4.6,100,0.08,RA,,0.56,WeatherDisplay:10.37,2013-05-23 21:06:00,
2013-05-23 17:11:00,67.1,67.1,29.76,ESE,104,0.0,2.3,100,0.14,RA,,0.62,WeatherDisplay:10.37,2013-05-23 21:11:00,
2013-05-23 17:16:00,67.1,67.1,29.76,ESE,104,0.0,0.0,100,0.19,RA,,0.66,WeatherDisplay:10.37,2013-05-23 21:16:00,
2013-05-23 17:21:00,67.1,67.1,29.76,ESE,104,0.0,1.1,100,0.20,RA,,0.67,WeatherDisplay:10.37,2013-05-23 21:21:00,
2013-05-23 17:26:00,67.1,67.1,29.76,ESE,104,0.0,0.0,100,0.22,RA,,0.70,WeatherDisplay:10.37,2013-05-23 21:26:00,
2013-05-23 17:31:00,67.1,67.1,29.76,ESE,104,0.0,0.0,100,0.24,RA,,0.71,WeatherDisplay:10.37,2013-05-23 21:31:00,
2013-05-23 17:36:00,67.1,67.1,29.77,WNW,288,0.4,3.0,100,0.24,RA,,0.71,WeatherDisplay:10.37,2013-05-23 21:36:00,
2013-05-23 17:42:00,66.9,66.9,29.77,SSW,203,0.3,3.5,100,0.24,,,0.71,WeatherDisplay:10.37,2013-05-23 21:42:00,
2013-05-23 17:47:00,66.8,66.8,29.76,SSW,203,0.0,0.0,100,0.25,RA,,0.72,WeatherDisplay:10.37,2013-05-23 21:47:00,
2013-05-23 17:52:00,66.6,66.6,29.76,SSW,203,0.0,0.0,100,0.24,RA,,0.72,WeatherDisplay:10.37,2013-05-23 21:52:00,
2013-05-23 17:57:00,66.6,66.6,29.76,SSW,203,0.0,0.0,100,0.21,RA,,0.74,WeatherDisplay:10.37,2013-05-23 21:57:00,
2013-05-23 18:03:00,66.4,66.4,29.77,SSW,203,0.0,0.0,100,0.23,RA,,0.76,WeatherDisplay:10.37,2013-05-23 22:03:00,
2013-05-23 18:08:00,66.3,66.3,29.77,SSW,203,0.0,0.0,100,0.21,RA,,0.79,WeatherDisplay:10.37,2013-05-23 22:08:00,
2013-05-23 18:13:00,66.3,66.3,29.77,SSW,203,0.0,0.0,100,0.16,RA,,0.80,WeatherDisplay:10.37,2013-05-23 22:13:00,
2013-05-23 18:18:00,66.1,66.1,29.76,SSW,203,0.0,0.0,100,0.16,RA,,0.83,WeatherDisplay:10.37,2013-05-23 22:18:00,
2013-05-23 18:23:00,66.0,66.0,29.76,SSW,203,0.0,0.0,100,0.17,RA,,0.85,WeatherDisplay:10.37,2013-05-23 22:23:00,
2013-05-23 18:28:00,65.8,65.8,29.77,SSW,203,0.0,0.0,100,0.17,RA,,0.87,WeatherDisplay:10.37,2013-05-23 22:28:00,
2013-05-23 18:34:00,65.8,65.8,29.76,SSW,203,0.0,0.0,100,0.22,RA,,0.93,WeatherDisplay:10.37,2013-05-23 22:34:00,
2013-05-23 18:39:00,65.8,65.8,29.76,SSW,203,0.0,0.0,100,0.28,RA,,1.00,WeatherDisplay:10.37,2013-05-23 22:39:00,
2013-05-23 18:44:00,65.8,65.8,29.76,SSW,203,0.0,0.0,100,0.31,RA,,1.02,WeatherDisplay:10.37,2013-05-23 22:44:00,
2013-05-23 18:49:00,65.8,65.8,29.76,SSW,203,0.0,0.0,100,0.32,RA,,1.04,WeatherDisplay:10.37,2013-05-23 22:49:00,
2013-05-23 18:54:00,65.8,65.8,29.76,SSW,203,1.7,3.5,100,0.33,RA,,1.05,WeatherDisplay:10.37,2013-05-23 22:54:00,
2013-05-23 19:00:00,65.8,65.8,29.75,SSW,203,0.0,0.0,100,0.32,RA,,1.07,WeatherDisplay:10.37,2013-05-23 23:00:00,
2013-05-23 19:05:00,65.8,65.8,29.75,SSW,203,0.0,0.0,100,0.30,RA,,1.08,WeatherDisplay:10.37,2013-05-23 23:05:00,
2013-05-23 19:10:00,65.8,65.8,29.74,SSW,203,0.0,0.0,100,0.30,RA,,1.09,WeatherDisplay:10.37,2013-05-23 23:10:00,
2013-05-23 19:16:00,65.8,65.8,29.74,SSW,203,0.0,0.0,100,0.29,RA,,1.10,WeatherDisplay:10.37,2013-05-23 23:16:00,
2013-05-23 19:21:00,65.8,65.8,29.74,SSW,203,0.0,0.0,100,0.27,RA,,1.10,WeatherDisplay:10.37,2013-05-23 23:21:00,
2013-05-23 19:26:00,65.8,65.8,29.74,SSW,203,0.0,0.0,100,0.26,RA,,1.11,WeatherDisplay:10.37,2013-05-23 23:26:00,
2013-05-23 19:31:00,65.8,65.8,29.73,SSW,203,0.0,0.0,100,0.19,RA,,1.11,WeatherDisplay:10.37,2013-05-23 23:31:00,
2013-05-23 19:37:00,66.0,66.0,29.74,South,186,1.5,3.5,100,0.14,,,1.11,WeatherDisplay:10.37,2013-05-23 23:37:00,
2013-05-23 19:42:00,65.8,65.8,29.74,South,186,0.0,0.0,100,0.10,,,1.11,WeatherDisplay:10.37,2013-05-23 23:42:00,
2013-05-23 19:47:00,65.8,65.8,29.74,ESE,123,0.0,0.0,100,0.08,,,1.11,WeatherDisplay:10.37,2013-05-23 23:47:00,
2013-05-23 19:52:00,65.8,65.8,29.74,South,182,0.0,0.0,100,0.06,,,1.11,WeatherDisplay:10.37,2013-05-23 23:52:00,
2013-05-23 19:57:00,65.8,65.8,29.74,SE,140,0.0,1.1,100,0.05,,,1.11,WeatherDisplay:10.37,2013-05-23 23:57:00,
2013-05-23 20:02:00,65.8,65.8,29.74,SE,140,0.0,0.0,100,0.04,,,1.11,WeatherDisplay:10.37,2013-05-24 00:02:00,
2013-05-23 20:08:00,65.8,65.8,29.74,SE,126,1.0,5.8,100,0.03,,,1.11,WeatherDisplay:10.37,2013-05-24 00:08:00,
2013-05-23 20:13:00,65.8,65.8,29.74,SE,126,0.0,1.1,100,0.02,,,1.11,WeatherDisplay:10.37,2013-05-24 00:13:00,
2013-05-23 20:18:00,65.8,65.8,29.74,SE,126,0.0,0.0,100,0.01,,,1.11,WeatherDisplay:10.37,2013-05-24 00:18:00,
2013-05-23 20:24:00,65.8,65.8,29.74,SE,126,0.0,0.0,100,0.00,,,1.11,WeatherDisplay:10.37,2013-05-24 00:24:00,
2013-05-23 20:29:00,65.8,65.8,29.74,SW,236,0.1,0.0,100,0.00,,,1.11,WeatherDisplay:10.37,2013-05-24 00:29:00,
2013-05-23 20:34:00,65.8,65.8,29.74,SW,223,0.2,1.1,100,0.00,,,1.11,WeatherDisplay:10.37,2013-05-24 00:34:00,
2013-05-23 20:39:00,65.8,65.8,29.74,SW,223,0.0,0.0,100,0.00,,,1.11,WeatherDisplay:10.37,2013-05-24 00:39:00,
2013-05-23 20:44:00,65.8,65.8,29.74,SW,223,0.0,0.0,100,0.00,,,1.11,WeatherDisplay:10.37,2013-05-24 00:44:00,
2013-05-23 20:50:00,65.8,65.8,29.74,SW,223,0.0,0.0,100,0.00,CLR,,1.11,WeatherDisplay:10.37,2013-05-24 00:50:00,
2013-05-23 20:55:00,65.8,65.8,29.74,SW,223,0.0,0.0,100,0.00,CLR,,1.11,WeatherDisplay:10.37,2013-05-24 00:55:00,
2013-05-23 21:00:00,65.8,65.8,29.74,SW,223,0.0,0.0,100,0.01,RA,,1.12,WeatherDisplay:10.37,2013-05-24 01:00:00,
2013-05-23 21:05:00,65.8,65.8,29.73,SSW,194,0.0,2.3,100,0.02,RA,,1.13,WeatherDisplay:10.37,2013-05-24 01:05:00,
2013-05-23 21:11:00,65.6,65.6,29.73,South,188,0.0,2.3,100,0.04,RA,,1.15,WeatherDisplay:10.37,2013-05-24 01:11:00,
2013-05-23 21:16:00,65.6,65.6,29.73,ESE,121,0.5,1.1,100,0.04,RA,,1.15,WeatherDisplay:10.37,2013-05-24 01:16:00,
2013-05-23 21:21:00,65.5,65.5,29.73,SSW,213,0.1,2.3,100,0.05,RA,,1.17,WeatherDisplay:10.37,2013-05-24 01:21:00,
2013-05-23 21:26:00,65.5,65.5,29.73,SW,215,0.2,1.1,100,0.07,RA,,1.18,WeatherDisplay:10.37,2013-05-24 01:26:00,
2013-05-23 21:32:00,65.5,65.5,29.73,South,171,0.2,1.1,100,0.08,RA,,1.19,WeatherDisplay:10.37,2013-05-24 01:32:00,
2013-05-23 21:37:00,65.5,65.5,29.73,South,171,0.0,1.1,100,0.08,RA,,1.19,WeatherDisplay:10.37,2013-05-24 01:37:00,
2013-05-23 21:42:00,65.5,65.5,29.73,WSW,249,0.1,0.0,100,0.08,CLR,,1.19,WeatherDisplay:10.37,2013-05-24 01:42:00,
2013-05-23 21:47:00,65.5,65.5,29.72,SW,224,0.0,1.1,100,0.08,CLR,,1.19,WeatherDisplay:10.37,2013-05-24 01:47:00,
2013-05-23 21:52:00,65.3,65.3,29.72,NNW,346,0.2,1.1,100,0.08,CLR,,1.19,WeatherDisplay:10.37,2013-05-24 01:52:00,
2013-05-23 21:57:00,65.3,65.3,29.72,SSE,163,1.9,4.6,100,0.07,CLR,,1.19,WeatherDisplay:10.37,2013-05-24 01:57:00,
2013-05-23 22:02:00,65.3,65.3,29.71,ESE,121,0.0,2.3,100,0.06,CLR,,1.19,WeatherDisplay:10.37,2013-05-24 02:02:00,
2013-05-23 22:07:00,65.5,65.5,29.71,West,268,1.2,3.5,100,0.05,CLR,,1.19,WeatherDisplay:10.37,2013-05-24 02:07:00,
2013-05-23 22:13:00,65.5,65.5,29.72,SSE,153,0.0,0.0,100,0.04,CLR,,1.19,WeatherDisplay:10.37,2013-05-24 02:13:00,
2013-05-23 22:18:00,65.5,65.5,29.71,WSW,243,0.4,1.1,100,0.05,RA,,1.21,WeatherDisplay:10.37,2013-05-24 02:18:00,
2013-05-23 22:23:00,65.3,65.3,29.71,SE,144,0.0,0.0,100,0.04,RA,,1.21,WeatherDisplay:10.37,2013-05-24 02:23:00,
2013-05-23 22:28:00,65.5,65.5,29.71,SE,144,0.0,1.0,100,0.04,RA,,1.22,WeatherDisplay:10.37,2013-05-24 02:28:00,
2013-05-23 22:33:00,65.3,65.3,29.71,SSW,211,0.2,1.1,100,0.03,RA,,1.22,WeatherDisplay:10.37,2013-05-24 02:33:00,
2013-05-23 22:38:00,65.3,65.3,29.71,SW,214,0.0,0.0,100,0.04,RA,,1.23,WeatherDisplay:10.37,2013-05-24 02:38:00,
2013-05-23 22:44:00,65.3,65.3,29.71,SW,214,0.0,0.0,100,0.05,RA,,1.24,WeatherDisplay:10.37,2013-05-24 02:44:00,
2013-05-23 22:49:00,65.3,65.3,29.71,SW,214,0.0,0.0,100,0.05,RA,,1.24,WeatherDisplay:10.37,2013-05-24 02:49:00,
2013-05-23 22:54:00,65.5,65.5,29.70,South,176,1.9,3.5,100,0.05,CLR,,1.24,WeatherDisplay:10.37,2013-05-24 02:54:00,
2013-05-23 22:59:00,65.5,65.5,29.70,SW,219,0.6,2.3,100,0.05,CLR,,1.24,WeatherDisplay:10.37,2013-05-24 02:59:00,
2013-05-23 23:04:00,65.5,65.5,29.70,East,96,1.2,1.2,100,0.05,CLR,,1.24,WeatherDisplay:10.37,2013-05-24 03:04:00,
2013-05-23 23:09:00,65.3,65.3,29.69,South,175,1.4,5.8,100,0.07,RA,,1.26,WeatherDisplay:10.37,2013-05-24 03:09:00,
2013-05-23 23:15:00,65.3,65.3,29.69,West,275,0.6,5.8,100,0.07,RA,,1.27,WeatherDisplay:10.37,2013-05-24 03:15:00,
2013-05-23 23:20:00,65.3,65.3,29.69,West,281,0.0,1.1,100,0.06,RA,,1.27,WeatherDisplay:10.37,2013-05-24 03:20:00,
2013-05-23 23:25:00,65.2,65.2,29.69,South,188,1.3,3.5,100,0.07,RA,,1.28,WeatherDisplay:10.37,2013-05-24 03:25:00,
2013-05-23 23:30:00,65.2,65.2,29.68,WNW,295,0.2,1.1,100,0.06,RA,,1.28,WeatherDisplay:10.37,2013-05-24 03:30:00,
2013-05-23 23:35:00,65.2,65.2,29.68,WSW,242,1.2,4.6,100,0.06,CLR,,1.28,WeatherDisplay:10.37,2013-05-24 03:35:00,
2013-05-23 23:41:00,65.3,65.3,29.69,SW,217,3.2,5.8,100,0.05,CLR,,1.28,WeatherDisplay:10.37,2013-05-24 03:41:00,
2013-05-23 23:46:00,65.3,65.3,29.68,SW,229,1.0,2.3,100,0.04,CLR,,1.28,WeatherDisplay:10.37,2013-05-24 03:46:00,
2013-05-23 23:51:00,65.2,65.2,29.68,South,182,1.1,3.5,100,0.04,CLR,,1.28,WeatherDisplay:10.37,2013-05-24 03:51:00,
2013-05-23 23:56:00,65.2,65.2,29.68,WSW,249,0.3,4.0,100,0.04,CLR,,1.28,WeatherDisplay:10.37,2013-05-24 03:56:00,